< < Back
Terminal Aerodrome Forecast


Current Version              Previous Versions:   1  2  3  4  5  6  7  8  9  

Terminal Aerodrome Forecast

234
FTUS42 KCHS 251100
TAFSAV
TAF
KSAV 251132Z 2512/2612 27005KT P6SM SKC
     FM251400 27010G15KT P6SM SKC
     FM251900 19008KT P6SM SKC
     FM260500 22009KT P6SM SCT020 BKN150=

Latest METAR

738
SAUS80 KWBC 251200 RRA
MTRSAV
METAR KSAV 251153Z 27005KT 10SM FEW200 03/M01 A3004 RMK AO2 SLP173
T00281011 10056 20017 53019


USA.gov is the U.S. government's official web portal to all federal, state and local government web resources and services.